Time;durP1;ratioP1;P1;durP2;ratioP2;P2;SDS_P1;SDS_P2;PMS_P1;PMS_P2;Temp;Humidity;BMP_temperature;BMP_pressure;BME280_temperature;BME280_humidity;BME280_pressure;Samples;Min_cycle;Max_cycle;Signal;HPM_P1;HPM_P2
2023/02/28 00:00:28;;;;;;;22.60;14.52;;;;;;;;;;5037835;28;20091;-71
2023/02/28 00:03:13;;;;;;;20.63;13.88;;;;;;;;;;5037672;28;20029;-71
2023/02/28 00:05:59;;;;;;;21.95;13.65;;;;;;;;;;5037567;28;20081;-71
2023/02/28 00:08:44;;;;;;;22.17;14.90;;;;;;;;;;5036862;28;20025;-73
2023/02/28 00:11:30;;;;;;;22.75;14.50;;;;;;;;;;5036045;28;20032;-72
2023/02/28 00:14:16;;;;;;;22.15;14.25;;;;;;;;;;5036020;28;20022;-73
2023/02/28 00:17:01;;;;;;;20.55;13.25;;;;;;;;;;5036606;28;20029;-71
2023/02/28 00:19:50;;;;;;;22.30;13.90;;;;;;;;;;5035240;28;20402;-74
2023/02/28 00:22:37;;;;;;;21.73;13.90;;;;;;;;;;5034846;28;20017;-73
2023/02/28 00:25:23;;;;;;;24.20;14.43;;;;;;;;;;5037162;28;20045;-71
2023/02/28 00:28:09;;;;;;;20.25;13.77;;;;;;;;;;5036546;28;20448;-72
2023/02/28 00:30:55;;;;;;;20.88;14.05;;;;;;;;;;5037351;28;20313;-71
2023/02/28 00:33:40;;;;;;;21.70;13.93;;;;;;;;;;5035375;28;20054;-72
2023/02/28 00:36:26;;;;;;;22.80;14.32;;;;;;;;;;5035710;28;20029;-72
2023/02/28 00:39:11;;;;;;;19.42;12.88;;;;;;;;;;5035586;28;20083;-70
2023/02/28 00:41:57;;;;;;;20.52;12.88;;;;;;;;;;5036234;28;20018;-72
2023/02/28 00:44:43;;;;;;;19.42;12.63;;;;;;;;;;5034303;28;20068;-71
2023/02/28 00:47:28;;;;;;;19.45;13.00;;;;;;;;;;5035273;28;20014;-72
2023/02/28 00:50:14;;;;;;;18.17;11.93;;;;;;;;;;5035487;28;20018;-71
2023/02/28 00:52:59;;;;;;;20.92;13.00;;;;;;;;;;5034844;28;20033;-72
2023/02/28 00:55:45;;;;;;;19.67;12.73;;;;;;;;;;5034960;28;20025;-70
2023/02/28 00:58:31;;;;;;;20.20;12.57;;;;;;;;;;5035545;28;20457;-72
2023/02/28 01:01:16;;;;;;;18.25;12.05;;;;;;;;;;5035326;28;20447;-72
2023/02/28 01:04:02;;;;;;;20.90;13.43;;;;;;;;;;5035402;28;20022;-72
2023/02/28 01:06:48;;;;;;;19.00;13.00;;;;;;;;;;5035847;28;20022;-71
2023/02/28 01:09:34;;;;;;;19.65;13.10;;;;;;;;;;5038037;28;20109;-71
2023/02/28 01:12:19;;;;;;;23.17;13.30;;;;;;;;;;5034824;28;20110;-73
2023/02/28 01:15:05;;;;;;;18.08;12.20;;;;;;;;;;5035972;28;20031;-73
2023/02/28 01:17:51;;;;;;;18.98;12.52;;;;;;;;;;5036228;28;20336;-73
2023/02/28 01:20:37;;;;;;;22.00;13.18;;;;;;;;;;5035271;28;20502;-71
2023/02/28 01:23:23;;;;;;;21.48;12.75;;;;;;;;;;5034566;28;20076;-72
2023/02/28 01:26:13;;;;;;;22.60;13.93;;;;;;;;;;5035032;28;20025;-71
2023/02/28 01:28:59;;;;;;;21.00;13.85;;;;;;;;;;5038637;28;20036;-73
2023/02/28 01:31:44;;;;;;;22.67;13.48;;;;;;;;;;5035512;28;20024;-71
2023/02/28 01:34:30;;;;;;;20.02;13.32;;;;;;;;;;5034935;28;20025;-72
2023/02/28 01:37:16;;;;;;;20.13;13.68;;;;;;;;;;5034602;28;20021;-73
2023/02/28 01:40:01;;;;;;;19.52;12.80;;;;;;;;;;5034159;28;20433;-72
2023/02/28 01:42:47;;;;;;;25.65;11.70;;;;;;;;;;5034414;28;20369;-71
2023/02/28 01:45:35;;;;;;;18.13;11.60;;;;;;;;;;5034112;28;20478;-71
2023/02/28 01:48:22;;;;;;;17.77;12.05;;;;;;;;;;5034427;28;20064;-71
2023/02/28 01:51:10;;;;;;;21.33;12.65;;;;;;;;;;5035745;28;20056;-72
2023/02/28 01:53:58;;;;;;;20.42;12.15;;;;;;;;;;5032969;28;20041;-72
2023/02/28 01:56:46;;;;;;;18.45;12.70;;;;;;;;;;5036798;28;20023;-71
2023/02/28 01:59:37;;;;;;;18.58;12.25;;;;;;;;;;5038386;28;20128;-70
2023/02/28 02:02:23;;;;;;;19.75;13.00;;;;;;;;;;5038325;28;20030;-72
2023/02/28 02:05:10;;;;;;;20.98;13.45;;;;;;;;;;5038204;28;20055;-71
2023/02/28 02:07:57;;;;;;;20.63;13.02;;;;;;;;;;5038427;28;20025;-70
2023/02/28 02:10:44;;;;;;;20.45;12.88;;;;;;;;;;5038996;28;20104;-71
2023/02/28 02:13:45;;;;;;;19.63;13.05;;;;;;;;;;5038727;28;20021;-71
2023/02/28 02:16:49;;;;;;;20.90;13.60;;;;;;;;;;5036706;28;20096;-72
2023/02/28 02:19:35;;;;;;;20.10;13.27;;;;;;;;;;5037222;28;20026;-71
2023/02/28 02:22:23;;;;;;;22.00;13.50;;;;;;;;;;5036301;28;20076;-71
2023/02/28 02:25:15;;;;;;;24.48;14.07;;;;;;;;;;5038362;28;20029;-71
2023/02/28 02:28:10;;;;;;;21.83;13.30;;;;;;;;;;5036162;28;20458;-70
2023/02/28 02:30:58;;;;;;;21.42;13.50;;;;;;;;;;5037870;28;20021;-71
2023/02/28 02:34:03;;;;;;;21.67;12.95;;;;;;;;;;5036217;28;20128;-71
2023/02/28 02:36:52;;;;;;;21.50;12.70;;;;;;;;;;5037722;28;20026;-71
2023/02/28 02:39:37;;;;;;;21.70;12.32;;;;;;;;;;5037033;28;20410;-71
2023/02/28 02:42:40;;;;;;;23.02;13.48;;;;;;;;;;5035814;28;20097;-71
2023/02/28 02:45:27;;;;;;;20.17;12.15;;;;;;;;;;5037028;28;20082;-70
2023/02/28 02:48:15;;;;;;;22.58;13.18;;;;;;;;;;5037716;28;20416;-71
2023/02/28 02:51:03;;;;;;;21.95;13.45;;;;;;;;;;5036749;28;20430;-72
2023/02/28 02:54:02;;;;;;;23.38;13.75;;;;;;;;;;5037018;28;20030;-72
2023/02/28 02:56:49;;;;;;;21.92;13.68;;;;;;;;;;5037115;28;20036;-70
2023/02/28 02:59:36;;;;;;;24.38;13.57;;;;;;;;;;5037866;28;20033;-73
2023/02/28 03:02:22;;;;;;;22.70;14.23;;;;;;;;;;5036733;28;20473;-71
2023/02/28 03:05:12;;;;;;;22.70;14.15;;;;;;;;;;5036287;28;20063;-71
2023/02/28 03:07:58;;;;;;;27.23;14.00;;;;;;;;;;5035576;28;20099;-71
2023/02/28 03:10:46;;;;;;;27.70;15.57;;;;;;;;;;5036996;28;20499;-71
2023/02/28 03:13:37;;;;;;;26.45;15.38;;;;;;;;;;5036444;28;20025;-71
2023/02/28 03:16:29;;;;;;;26.63;15.80;;;;;;;;;;5037242;28;20416;-70
2023/02/28 03:19:17;;;;;;;26.35;15.68;;;;;;;;;;5036647;28;20025;-71
2023/02/28 03:22:05;;;;;;;25.92;16.13;;;;;;;;;;5035366;28;20025;-70
2023/02/28 03:24:54;;;;;;;26.77;15.32;;;;;;;;;;5036502;28;20021;-73
2023/02/28 03:27:58;;;;;;;26.05;15.90;;;;;;;;;;5035441;28;20023;-71
2023/02/28 03:30:53;;;;;;;26.13;15.55;;;;;;;;;;5036336;28;20100;-72
2023/02/28 03:33:42;;;;;;;27.02;15.50;;;;;;;;;;5036447;28;20045;-70
2023/02/28 03:36:29;;;;;;;27.50;15.48;;;;;;;;;;5036466;28;20022;-71
2023/02/28 03:39:17;;;;;;;27.98;16.40;;;;;;;;;;5036573;28;20017;-72
2023/02/28 03:42:08;;;;;;;28.23;16.60;;;;;;;;;;5036105;28;20013;-72
2023/02/28 03:44:56;;;;;;;28.70;16.27;;;;;;;;;;5036183;28;20031;-70
2023/02/28 03:47:52;;;;;;;27.40;16.67;;;;;;;;;;5036867;28;20025;-72
2023/02/28 03:50:38;;;;;;;30.40;16.75;;;;;;;;;;5036763;28;20014;-72
2023/02/28 03:53:38;;;;;;;27.65;16.55;;;;;;;;;;5036074;28;20014;-71
2023/02/28 03:56:38;;;;;;;28.92;17.35;;;;;;;;;;5035650;28;20064;-71
2023/02/28 03:59:42;;;;;;;28.80;16.75;;;;;;;;;;5036419;28;20017;-70
2023/02/28 04:02:28;;;;;;;28.92;17.13;;;;;;;;;;5035438;28;20018;-71
2023/02/28 04:05:13;;;;;;;28.70;16.63;;;;;;;;;;5036224;28;20102;-71
2023/02/28 04:08:06;;;;;;;30.27;17.52;;;;;;;;;;5034558;28;20025;-72
2023/02/28 04:11:12;;;;;;;29.30;17.10;;;;;;;;;;5035920;28;20033;-71
2023/02/28 04:13:58;;;;;;;29.88;17.70;;;;;;;;;;5035339;28;20091;-72
2023/02/28 04:16:43;;;;;;;30.85;17.63;;;;;;;;;;5034386;28;20039;-73
2023/02/28 04:19:29;;;;;;;32.30;18.30;;;;;;;;;;5035395;28;20064;-71
2023/02/28 04:22:14;;;;;;;30.23;17.08;;;;;;;;;;5033906;28;20108;-73
2023/02/28 04:25:00;;;;;;;31.40;18.63;;;;;;;;;;5034435;28;20409;-72
2023/02/28 04:27:46;;;;;;;35.97;19.55;;;;;;;;;;5033856;28;20408;-71
2023/02/28 04:30:32;;;;;;;35.30;19.13;;;;;;;;;;5035595;28;20529;-72
2023/02/28 04:33:18;;;;;;;31.80;18.67;;;;;;;;;;5035094;28;20055;-71
2023/02/28 04:36:08;;;;;;;35.42;19.85;;;;;;;;;;5035431;28;20017;-70
2023/02/28 04:38:53;;;;;;;35.88;19.75;;;;;;;;;;5035164;28;20036;-71
2023/02/28 04:41:39;;;;;;;34.25;18.58;;;;;;;;;;5033881;28;20021;-72
2023/02/28 04:44:25;;;;;;;35.97;19.67;;;;;;;;;;5035091;28;20021;-72
2023/02/28 04:47:10;;;;;;;34.83;19.38;;;;;;;;;;5035561;28;20017;-70
2023/02/28 04:49:56;;;;;;;33.80;19.23;;;;;;;;;;5033346;28;20010;-72
2023/02/28 04:52:42;;;;;;;36.55;20.00;;;;;;;;;;5034309;28;20025;-70
2023/02/28 04:55:27;;;;;;;35.88;19.42;;;;;;;;;;5035041;28;20024;-71
2023/02/28 04:58:13;;;;;;;38.53;21.08;;;;;;;;;;5033176;28;20024;-72
2023/02/28 05:01:03;;;;;;;37.92;21.35;;;;;;;;;;5035940;28;20052;-70
2023/02/28 05:03:49;;;;;;;40.35;21.80;;;;;;;;;;5035337;28;20029;-71
2023/02/28 05:06:35;;;;;;;41.05;21.85;;;;;;;;;;5035576;28;20104;-71
2023/02/28 05:09:21;;;;;;;39.65;21.70;;;;;;;;;;5034751;28;20013;-70
2023/02/28 05:12:06;;;;;;;37.92;21.23;;;;;;;;;;5035225;28;20029;-72
2023/02/28 05:14:52;;;;;;;40.85;21.48;;;;;;;;;;5034735;28;20026;-72
2023/02/28 05:17:37;;;;;;;39.70;22.00;;;;;;;;;;5034956;28;20021;-72
2023/02/28 05:20:23;;;;;;;37.85;21.17;;;;;;;;;;5034084;28;20017;-72
2023/02/28 05:23:11;;;;;;;38.83;21.40;;;;;;;;;;5034140;28;20358;-72
2023/02/28 05:25:56;;;;;;;40.22;21.20;;;;;;;;;;5034719;28;20442;-71
2023/02/28 05:28:42;;;;;;;40.08;20.58;;;;;;;;;;5033702;28;20100;-72
2023/02/28 05:31:28;;;;;;;40.63;21.80;;;;;;;;;;5037256;28;20025;-72
2023/02/28 05:34:15;;;;;;;35.33;20.45;;;;;;;;;;5040745;28;20029;-72
2023/02/28 05:37:01;;;;;;;40.17;21.65;;;;;;;;;;5041709;28;20033;-70
2023/02/28 05:39:46;;;;;;;36.42;20.65;;;;;;;;;;5040556;28;20446;-71
2023/02/28 05:42:32;;;;;;;38.88;21.05;;;;;;;;;;5040475;28;20036;-71
2023/02/28 05:45:17;;;;;;;37.17;19.67;;;;;;;;;;5039597;28;20118;-70
2023/02/28 05:48:03;;;;;;;35.17;19.58;;;;;;;;;;5040678;28;20021;-72
2023/02/28 05:50:49;;;;;;;39.75;21.52;;;;;;;;;;5039299;28;20017;-72
2023/02/28 05:53:35;;;;;;;40.78;21.85;;;;;;;;;;5039795;28;20101;-71
2023/02/28 05:56:20;;;;;;;41.33;22.10;;;;;;;;;;5041020;28;20062;-72
2023/02/28 05:59:06;;;;;;;37.55;20.38;;;;;;;;;;5040509;28;20028;-72
2023/02/28 06:01:52;;;;;;;36.50;20.52;;;;;;;;;;5040957;28;20033;-71
2023/02/28 06:04:38;;;;;;;33.35;19.20;;;;;;;;;;5039730;28;20059;-70
2023/02/28 06:07:24;;;;;;;35.00;19.35;;;;;;;;;;5040676;28;20014;-71
2023/02/28 06:10:10;;;;;;;35.78;19.33;;;;;;;;;;5040720;28;20024;-71
2023/02/28 06:12:59;;;;;;;33.67;18.63;;;;;;;;;;5039885;28;20032;-70
2023/02/28 06:15:44;;;;;;;33.55;18.50;;;;;;;;;;5039906;28;20053;-71
2023/02/28 06:18:30;;;;;;;35.40;19.33;;;;;;;;;;5040514;28;20029;-70
2023/02/28 06:21:15;;;;;;;34.33;19.33;;;;;;;;;;5040248;28;20017;-71
2023/02/28 06:24:02;;;;;;;35.28;19.50;;;;;;;;;;5041480;28;20330;-70
2023/02/28 06:26:47;;;;;;;35.00;19.58;;;;;;;;;;5041205;28;20026;-71
2023/02/28 06:29:34;;;;;;;36.75;19.35;;;;;;;;;;5040747;28;20028;-70
2023/02/28 06:32:19;;;;;;;35.33;18.33;;;;;;;;;;5039543;28;20108;-71
2023/02/28 06:35:05;;;;;;;35.72;19.13;;;;;;;;;;5040878;28;20080;-71
2023/02/28 06:37:50;;;;;;;38.55;20.00;;;;;;;;;;5040616;28;20442;-71
2023/02/28 06:40:36;;;;;;;37.40;18.85;;;;;;;;;;5040537;28;20027;-71
2023/02/28 06:43:22;;;;;;;38.13;19.98;;;;;;;;;;5042878;28;20029;-69
2023/02/28 06:46:10;;;;;;;37.22;19.90;;;;;;;;;;5041122;28;20036;-70
2023/02/28 06:48:55;;;;;;;38.55;19.63;;;;;;;;;;5036776;28;20018;-70
2023/02/28 06:51:41;;;;;;;42.03;21.25;;;;;;;;;;5037269;28;20017;-69
2023/02/28 06:54:27;;;;;;;41.13;22.60;;;;;;;;;;5036699;28;20101;-70
2023/02/28 06:57:13;;;;;;;42.85;23.25;;;;;;;;;;5036609;28;20028;-70
2023/02/28 07:00:04;;;;;;;44.70;25.25;;;;;;;;;;5035829;28;20033;-69
2023/02/28 07:02:50;;;;;;;46.40;24.42;;;;;;;;;;5037473;28;20166;-70
2023/02/28 07:05:36;;;;;;;44.67;24.38;;;;;;;;;;5037050;28;20167;-71
2023/02/28 07:08:23;;;;;;;43.38;23.20;;;;;;;;;;5036462;28;20410;-70
2023/02/28 07:11:09;;;;;;;38.10;22.17;;;;;;;;;;5036974;28;20483;-70
2023/02/28 07:13:54;;;;;;;39.42;21.45;;;;;;;;;;5036011;28;20033;-68
2023/02/28 07:16:40;;;;;;;37.72;21.20;;;;;;;;;;5036000;28;20033;-69
2023/02/28 07:19:26;;;;;;;43.28;21.40;;;;;;;;;;5035556;28;20013;-71
2023/02/28 07:22:12;;;;;;;37.17;20.38;;;;;;;;;;5036292;28;20087;-70
2023/02/28 07:24:57;;;;;;;35.33;20.60;;;;;;;;;;5035723;28;20017;-70
2023/02/28 07:27:43;;;;;;;41.13;20.65;;;;;;;;;;5036022;28;20113;-73
2023/02/28 07:30:28;;;;;;;45.97;24.83;;;;;;;;;;5036104;28;20349;-68
2023/02/28 07:33:14;;;;;;;37.72;20.50;;;;;;;;;;5035821;28;20052;-71
2023/02/28 07:36:01;;;;;;;37.50;20.88;;;;;;;;;;5035633;28;20021;-70
2023/02/28 07:38:49;;;;;;;37.65;20.85;;;;;;;;;;5036559;28;20151;-70
2023/02/28 07:41:39;;;;;;;40.40;20.45;;;;;;;;;;5036428;28;20025;-70
2023/02/28 07:44:24;;;;;;;36.53;20.25;;;;;;;;;;5036544;28;20029;-71
2023/02/28 07:47:10;;;;;;;40.28;21.38;;;;;;;;;;5036537;28;20045;-71
2023/02/28 07:49:56;;;;;;;40.08;20.55;;;;;;;;;;5037185;28;20323;-71
2023/02/28 07:52:41;;;;;;;38.05;20.70;;;;;;;;;;5036379;28;20051;-70
2023/02/28 07:55:27;;;;;;;39.40;21.55;;;;;;;;;;5035110;28;20014;-69
2023/02/28 07:58:12;;;;;;;37.35;21.45;;;;;;;;;;5035916;28;20060;-69
2023/02/28 08:01:05;;;;;;;39.25;21.48;;;;;;;;;;5035576;28;20025;-70
2023/02/28 08:03:50;;;;;;;37.70;21.52;;;;;;;;;;5036675;28;20025;-70
2023/02/28 08:06:36;;;;;;;38.97;21.55;;;;;;;;;;5035057;28;20390;-69
2023/02/28 08:09:21;;;;;;;35.72;20.38;;;;;;;;;;5035560;28;20021;-69
2023/02/28 08:12:08;;;;;;;35.85;20.63;;;;;;;;;;5035590;28;20025;-70
2023/02/28 08:14:53;;;;;;;41.75;22.35;;;;;;;;;;5035695;28;20025;-70
2023/02/28 08:17:39;;;;;;;39.13;21.13;;;;;;;;;;5035601;28;20022;-70
2023/02/28 08:20:25;;;;;;;35.78;19.73;;;;;;;;;;5035706;28;20108;-70
2023/02/28 08:23:11;;;;;;;39.10;21.25;;;;;;;;;;5035993;28;20033;-68
2023/02/28 08:25:56;;;;;;;36.72;20.60;;;;;;;;;;5034383;28;20115;-70
2023/02/28 08:28:42;;;;;;;37.72;20.92;;;;;;;;;;5036651;28;20446;-69
2023/02/28 08:31:27;;;;;;;36.75;19.77;;;;;;;;;;5035232;28;20029;-71
2023/02/28 08:34:14;;;;;;;37.72;20.58;;;;;;;;;;5033800;28;20033;-70
2023/02/28 08:37:00;;;;;;;36.80;19.98;;;;;;;;;;5035004;28;20089;-70
2023/02/28 08:39:45;;;;;;;37.75;20.85;;;;;;;;;;5035033;28;20029;-69
2023/02/28 08:42:32;;;;;;;34.78;20.02;;;;;;;;;;5034767;28;20392;-69
2023/02/28 08:45:17;;;;;;;37.72;20.65;;;;;;;;;;5034213;28;20022;-69
2023/02/28 08:48:03;;;;;;;37.22;20.30;;;;;;;;;;5033474;28;20013;-69
2023/02/28 08:51:09;;;;;;;39.50;20.55;;;;;;;;;;5035928;28;20014;-69
2023/02/28 08:53:55;;;;;;;41.40;21.50;;;;;;;;;;5034072;28;20362;-70
2023/02/28 08:56:41;;;;;;;36.92;20.15;;;;;;;;;;5035327;28;20029;-70
2023/02/28 08:59:27;;;;;;;35.90;20.10;;;;;;;;;;5035183;28;20031;-69
2023/02/28 09:02:13;;;;;;;33.58;19.42;;;;;;;;;;5034731;28;20103;-70
2023/02/28 09:04:59;;;;;;;38.53;20.30;;;;;;;;;;5035843;28;20362;-70
2023/02/28 09:07:44;;;;;;;37.30;20.35;;;;;;;;;;5034688;28;20469;-69
2023/02/28 09:10:30;;;;;;;36.80;21.33;;;;;;;;;;5034907;28;20474;-70
2023/02/28 09:13:15;;;;;;;37.15;19.65;;;;;;;;;;5034755;28;20457;-71
2023/02/28 09:16:04;;;;;;;40.20;22.15;;;;;;;;;;5033055;28;20086;-69
2023/02/28 09:18:50;;;;;;;37.35;19.80;;;;;;;;;;5034064;28;20021;-70
2023/02/28 09:21:35;;;;;;;35.10;18.83;;;;;;;;;;5034515;28;20029;-71
2023/02/28 09:24:21;;;;;;;33.90;19.23;;;;;;;;;;5033851;28;20120;-69
2023/02/28 09:27:07;;;;;;;33.10;19.52;;;;;;;;;;5034659;28;20032;-70
2023/02/28 09:29:52;;;;;;;33.60;19.45;;;;;;;;;;5034487;28;20075;-69
2023/02/28 09:32:38;;;;;;;37.22;20.55;;;;;;;;;;5034983;28;20088;-71
2023/02/28 09:35:23;;;;;;;33.40;19.05;;;;;;;;;;5033345;28;20040;-70
2023/02/28 09:38:10;;;;;;;33.65;19.80;;;;;;;;;;5034769;28;20021;-69
2023/02/28 09:40:57;;;;;;;32.92;19.48;;;;;;;;;;5034932;28;20443;-69
2023/02/28 09:43:47;;;;;;;35.17;20.80;;;;;;;;;;5036174;28;20026;-67
2023/02/28 09:46:34;;;;;;;35.20;21.63;;;;;;;;;;5041681;28;20029;-70
2023/02/28 09:49:22;;;;;;;32.85;19.80;;;;;;;;;;5034881;28;20028;-69
2023/02/28 09:52:13;;;;;;;32.72;19.73;;;;;;;;;;5034541;28;20017;-69
2023/02/28 09:55:01;;;;;;;38.83;20.88;;;;;;;;;;5034004;28;20026;-69
2023/02/28 09:57:47;;;;;;;35.00;20.40;;;;;;;;;;5035161;28;20032;-71
2023/02/28 10:00:36;;;;;;;38.00;20.40;;;;;;;;;;5033559;28;20017;-71
2023/02/28 10:03:42;;;;;;;35.05;19.88;;;;;;;;;;5034555;28;20021;-69
2023/02/28 10:06:30;;;;;;;36.25;20.27;;;;;;;;;;5034956;28;20106;-68
2023/02/28 10:09:26;;;;;;;35.15;19.85;;;;;;;;;;5033349;28;20108;-69
2023/02/28 10:12:13;;;;;;;33.72;19.02;;;;;;;;;;5034978;28;20091;-71
2023/02/28 10:14:59;;;;;;;36.13;20.27;;;;;;;;;;5034281;28;20083;-70
2023/02/28 10:17:47;;;;;;;35.20;20.33;;;;;;;;;;5034558;28;20407;-70
2023/02/28 10:20:33;;;;;;;37.00;20.55;;;;;;;;;;5038226;28;20025;-70
2023/02/28 10:23:22;;;;;;;35.88;20.33;;;;;;;;;;5038190;28;20029;-69
2023/02/28 10:26:18;;;;;;;36.17;20.10;;;;;;;;;;5036430;28;20026;-70
2023/02/28 10:29:04;;;;;;;33.40;19.65;;;;;;;;;;5037867;28;20025;-70
2023/02/28 10:31:49;;;;;;;36.70;20.67;;;;;;;;;;5037083;28;20465;-70
2023/02/28 10:34:35;;;;;;;40.22;21.85;;;;;;;;;;5037390;28;20029;-71
2023/02/28 10:37:20;;;;;;;37.40;21.27;;;;;;;;;;5036126;28;20152;-70
2023/02/28 10:40:24;;;;;;;35.92;20.85;;;;;;;;;;5037979;28;20083;-69
2023/02/28 10:43:12;;;;;;;34.90;20.02;;;;;;;;;;5036924;28;20026;-70
2023/02/28 10:46:10;;;;;;;36.65;21.42;;;;;;;;;;5036077;28;20053;-69
2023/02/28 10:49:04;;;;;;;36.13;21.00;;;;;;;;;;5037656;28;20453;-70
2023/02/28 10:51:57;;;;;;;41.67;22.52;;;;;;;;;;5036646;28;20105;-70
2023/02/28 10:54:43;;;;;;;44.22;24.88;;;;;;;;;;5038125;28;20017;-69
2023/02/28 10:57:30;;;;;;;57.00;31.63;;;;;;;;;;5036123;28;20025;-68
2023/02/28 11:00:21;;;;;;;51.88;30.38;;;;;;;;;;5037641;28;20033;-71
2023/02/28 11:03:22;;;;;;;56.25;35.15;;;;;;;;;;5036189;28;20022;-71
2023/02/28 11:06:13;;;;;;;37.95;21.90;;;;;;;;;;5036694;28;20056;-69
2023/02/28 11:09:12;;;;;;;36.10;21.20;;;;;;;;;;5036169;28;20056;-70
2023/02/28 11:11:58;;;;;;;40.22;21.73;;;;;;;;;;5036909;28;20024;-69
2023/02/28 11:14:51;;;;;;;41.30;21.63;;;;;;;;;;5038601;28;20028;-70
2023/02/28 11:17:37;;;;;;;43.45;24.20;;;;;;;;;;5037311;28;20052;-70
2023/02/28 11:20:24;;;;;;;37.50;20.80;;;;;;;;;;5036330;28;20104;-70
2023/02/28 11:23:13;;;;;;;38.83;20.90;;;;;;;;;;5035965;28;20057;-69
2023/02/28 11:26:00;;;;;;;43.25;22.40;;;;;;;;;;5036029;28;20106;-69
2023/02/28 11:28:46;;;;;;;41.28;21.40;;;;;;;;;;5035850;28;20033;-70
2023/02/28 11:31:31;;;;;;;41.03;21.70;;;;;;;;;;5036795;28;20026;-71
2023/02/28 11:34:23;;;;;;;41.72;23.10;;;;;;;;;;5036024;28;20075;-70
2023/02/28 11:37:16;;;;;;;49.80;23.05;;;;;;;;;;5036477;28;20039;-70
2023/02/28 11:40:03;;;;;;;40.75;22.52;;;;;;;;;;5036884;28;20025;-69
2023/02/28 11:43:06;;;;;;;40.85;22.35;;;;;;;;;;5035817;28;20021;-68
2023/02/28 11:46:21;;;;;;;39.40;21.73;;;;;;;;;;5036418;28;20021;-70
2023/02/28 11:49:14;;;;;;;49.08;27.33;;;;;;;;;;5031937;28;20040;-70
2023/02/28 11:52:03;;;;;;;47.40;24.95;;;;;;;;;;5035477;28;20192;-70
2023/02/28 11:54:51;;;;;;;40.72;25.27;;;;;;;;;;5035908;28;20025;-69
2023/02/28 11:57:56;;;;;;;42.10;23.30;;;;;;;;;;5034727;28;20078;-71
2023/02/28 12:00:53;;;;;;;40.65;23.08;;;;;;;;;;5036141;28;20025;-69
2023/02/28 12:03:45;;;;;;;44.33;23.65;;;;;;;;;;5036014;28;20033;-71
2023/02/28 12:06:36;;;;;;;47.83;24.42;;;;;;;;;;5034054;28;20041;-70
2023/02/28 12:09:28;;;;;;;44.10;23.88;;;;;;;;;;5036391;28;20048;-70
2023/02/28 12:12:19;;;;;;;43.78;24.20;;;;;;;;;;5034402;28;20104;-70
2023/02/28 12:15:25;;;;;;;46.70;23.92;;;;;;;;;;5035940;28;20017;-69
2023/02/28 12:18:24;;;;;;;41.35;23.10;;;;;;;;;;5033130;28;20033;-69
2023/02/28 12:21:18;;;;;;;43.10;24.17;;;;;;;;;;5034830;28;20021;-69
2023/02/28 12:24:07;;;;;;;44.20;23.88;;;;;;;;;;5035404;28;20025;-71
2023/02/28 12:26:53;;;;;;;47.05;24.65;;;;;;;;;;5035527;28;20101;-70
2023/02/28 12:29:49;;;;;;;56.72;28.10;;;;;;;;;;5035992;28;20485;-71
2023/02/28 12:32:39;;;;;;;45.83;25.30;;;;;;;;;;5033711;28;20057;-69
2023/02/28 12:35:27;;;;;;;48.85;25.92;;;;;;;;;;5034666;28;20021;-71
2023/02/28 12:38:17;;;;;;;42.88;24.33;;;;;;;;;;5034610;28;20094;-70
2023/02/28 12:41:07;;;;;;;46.20;24.77;;;;;;;;;;5035464;28;20029;-70
2023/02/28 12:43:57;;;;;;;44.25;23.70;;;;;;;;;;5034254;28;20036;-69
2023/02/28 12:46:46;;;;;;;45.17;23.98;;;;;;;;;;5035760;28;20045;-70
2023/02/28 12:49:44;;;;;;;46.33;25.00;;;;;;;;;;5035945;28;20026;-70
2023/02/28 12:52:48;;;;;;;53.00;29.23;;;;;;;;;;5034948;28;20025;-69
2023/02/28 12:55:42;;;;;;;50.15;24.48;;;;;;;;;;5034631;28;20022;-69
2023/02/28 12:58:32;;;;;;;45.00;23.48;;;;;;;;;;5036159;28;20083;-70
2023/02/28 13:01:25;;;;;;;45.17;25.10;;;;;;;;;;5034757;28;20036;-69
2023/02/28 13:04:10;;;;;;;49.42;25.63;;;;;;;;;;5035844;28;20026;-70
2023/02/28 13:06:59;;;;;;;47.00;24.33;;;;;;;;;;5033835;28;20122;-71
2023/02/28 13:09:55;;;;;;;45.95;25.73;;;;;;;;;;5035143;28;20104;-70
2023/02/28 13:12:49;;;;;;;43.00;24.67;;;;;;;;;;5034726;28;20018;-69
2023/02/28 13:15:40;;;;;;;43.78;23.85;;;;;;;;;;5039737;28;20041;-69
2023/02/28 13:18:46;;;;;;;43.83;24.45;;;;;;;;;;5037034;28;20021;-70
2023/02/28 13:21:41;;;;;;;40.28;23.05;;;;;;;;;;5042653;28;20052;-69
2023/02/28 13:24:37;;;;;;;36.83;22.58;;;;;;;;;;5053806;28;20025;-71
2023/02/28 13:27:25;;;;;;;37.63;21.73;;;;;;;;;;5053626;28;20357;-73
2023/02/28 13:30:29;;;;;;;67.07;34.92;;;;;;;;;;5054094;28;20361;-71
2023/02/28 13:33:24;;;;;;;41.40;22.85;;;;;;;;;;5055557;28;20045;-71
2023/02/28 13:36:13;;;;;;;39.20;21.60;;;;;;;;;;5063402;28;20017;-70
2023/02/28 13:39:21;;;;;;;37.53;21.63;;;;;;;;;;5055126;28;20108;-70
2023/02/28 13:42:22;;;;;;;39.28;21.42;;;;;;;;;;5054763;28;20082;-70
2023/02/28 13:45:11;;;;;;;34.58;20.73;;;;;;;;;;5054040;28;20040;-71
2023/02/28 13:47:59;;;;;;;37.13;20.40;;;;;;;;;;5053659;28;20395;-71
2023/02/28 13:50:45;;;;;;;36.17;21.08;;;;;;;;;;5053796;28;20051;-71
2023/02/28 13:53:30;;;;;;;35.92;20.27;;;;;;;;;;5057141;28;20021;-70
2023/02/28 13:56:23;;;;;;;39.13;22.45;;;;;;;;;;5057884;28;20035;-69
2023/02/28 13:59:41;;;;;;;41.03;21.30;;;;;;;;;;5058501;28;20129;-71
2023/02/28 14:02:44;;;;;;;35.30;19.42;;;;;;;;;;5033198;28;20024;-71
2023/02/28 14:05:32;;;;;;;37.08;20.23;;;;;;;;;;5057001;28;20391;-71
2023/02/28 14:08:20;;;;;;;36.65;19.83;;;;;;;;;;5057463;28;20044;-70
2023/02/28 14:11:09;;;;;;;38.33;20.38;;;;;;;;;;5057520;28;20042;-70
2023/02/28 14:13:55;;;;;;;33.80;19.85;;;;;;;;;;5057354;28;20024;-71
2023/02/28 14:16:44;;;;;;;38.13;21.75;;;;;;;;;;5057864;28;20496;-71
2023/02/28 14:19:30;;;;;;;34.05;18.42;;;;;;;;;;5057516;28;20117;-70
2023/02/28 14:22:19;;;;;;;32.60;18.90;;;;;;;;;;5057138;28;20009;-71
2023/02/28 14:25:23;;;;;;;37.17;20.65;;;;;;;;;;5057279;28;20112;-70
2023/02/28 14:28:18;;;;;;;34.72;20.13;;;;;;;;;;5056600;28;20013;-70
2023/02/28 14:31:07;;;;;;;30.88;19.10;;;;;;;;;;5056270;28;20055;-71
2023/02/28 14:33:59;;;;;;;33.00;18.98;;;;;;;;;;5056698;28;20436;-71
2023/02/28 14:36:45;;;;;;;34.33;19.98;;;;;;;;;;5056533;28;20090;-71
2023/02/28 14:39:31;;;;;;;33.40;18.60;;;;;;;;;;5057152;28;20047;-71
2023/02/28 14:42:37;;;;;;;34.35;19.45;;;;;;;;;;5056725;28;20094;-70
2023/02/28 14:45:23;;;;;;;45.90;27.50;;;;;;;;;;5057047;28;20457;-71
2023/02/28 14:48:09;;;;;;;51.60;34.17;;;;;;;;;;5056908;28;20025;-71
2023/02/28 14:50:57;;;;;;;37.03;19.88;;;;;;;;;;5057598;28;20028;-71
2023/02/28 14:53:42;;;;;;;32.33;18.63;;;;;;;;;;5056882;28;20025;-69
2023/02/28 14:56:36;;;;;;;36.25;21.75;;;;;;;;;;5056180;28;20021;-70
2023/02/28 14:59:29;;;;;;;32.97;19.83;;;;;;;;;;5056372;28;20127;-70
2023/02/28 15:02:22;;;;;;;43.88;26.75;;;;;;;;;;5056770;28;20085;-74
2023/02/28 15:05:17;;;;;;;31.65;18.92;;;;;;;;;;5055545;28;20047;-71
2023/02/28 15:08:05;;;;;;;34.97;20.35;;;;;;;;;;5056440;28;20017;-70
2023/02/28 15:10:54;;;;;;;31.42;19.27;;;;;;;;;;5056852;28;20013;-71
2023/02/28 15:13:41;;;;;;;37.55;20.67;;;;;;;;;;5056106;28;20053;-73
2023/02/28 15:16:31;;;;;;;31.88;19.38;;;;;;;;;;5055212;28;20035;-72
2023/02/28 15:19:20;;;;;;;32.72;19.90;;;;;;;;;;5056280;28;20036;-71
2023/02/28 15:22:14;;;;;;;40.22;22.77;;;;;;;;;;5055665;28;20468;-71
2023/02/28 15:25:00;;;;;;;35.42;18.50;;;;;;;;;;5056027;28;20025;-72
2023/02/28 15:27:47;;;;;;;32.35;19.00;;;;;;;;;;5056292;28;20025;-71
2023/02/28 15:30:33;;;;;;;31.35;18.40;;;;;;;;;;5055583;28;20021;-72
2023/02/28 15:33:20;;;;;;;33.70;19.20;;;;;;;;;;5056536;28;20051;-73
2023/02/28 15:36:20;;;;;;;33.20;19.00;;;;;;;;;;5055865;28;20029;-72
2023/02/28 15:39:23;;;;;;;32.58;18.38;;;;;;;;;;5056135;28;20327;-72
2023/02/28 15:42:12;;;;;;;33.80;19.35;;;;;;;;;;5055283;28;20028;-71
2023/02/28 15:44:59;;;;;;;34.80;19.13;;;;;;;;;;5055970;28;20029;-71
2023/02/28 15:47:45;;;;;;;33.75;19.77;;;;;;;;;;5055426;28;20024;-72
2023/02/28 15:50:31;;;;;;;38.53;21.48;;;;;;;;;;5055038;28;20021;-72
2023/02/28 15:53:25;;;;;;;37.63;22.20;;;;;;;;;;5056116;28;20021;-73
2023/02/28 15:56:16;;;;;;;37.70;23.15;;;;;;;;;;5054782;28;20110;-73
2023/02/28 15:59:05;;;;;;;37.92;22.50;;;;;;;;;;5055183;28;20492;-72
2023/02/28 16:02:09;;;;;;;39.95;22.90;;;;;;;;;;5055233;28;20378;-71
2023/02/28 16:05:17;;;;;;;41.80;23.55;;;;;;;;;;5055390;28;20021;-71
2023/02/28 16:08:15;;;;;;;41.17;23.80;;;;;;;;;;5062550;28;20112;-71
2023/02/28 16:11:01;;;;;;;79.43;39.50;;;;;;;;;;5063760;28;20094;-71
2023/02/28 16:13:47;;;;;;;45.78;24.80;;;;;;;;;;5054949;28;20124;-70
2023/02/28 16:16:33;;;;;;;44.78;24.50;;;;;;;;;;5054644;28;20029;-70
2023/02/28 16:19:19;;;;;;;42.72;24.25;;;;;;;;;;5055659;28;20039;-71
2023/02/28 16:22:04;;;;;;;48.47;26.40;;;;;;;;;;5054838;28;20020;-71